• Join FlightAware (Why Join?)
  • Login
  • US Flag 
02:24PM EST


 

Airport Tracker/Info


-or-


 

Live Flight TrackerFlight Track Log ✈ EJA929 ✈ 11-Sep-2013 ✈ KLEX - KMKE

Flight Track Log - Related Links

Times and Time Zones

All times are in EDT time to prevent confusion due to time zone crossing. See the EJA929 flight status page for this flight to view local times or setup timezone preferences in your user account.

Time Position Orientation Groundspeed Altitude Reporting Facility
EDT Latitude Longitude Course Direction KTS MPH feet Rate Location/Type
01:26PM 38.0072 -84.6347 244° Southwest 191 220 30,000  Level Indianapolis Center
01:27PM 37.9828 -84.6981 244° Southwest 254 292 5,300 -10,200 Descending Indianapolis Center
01:28PM 37.9761 -84.8097 266° West 273 314 9,100 2,700 Climbing Indianapolis Center
01:29PM 37.9708 -84.9178 266° West 304 350 10,900 1,740 Climbing Indianapolis Center
01:30PM 37.9803 -85.0428 276° West 342 394 12,800 1,860 Climbing Indianapolis Center
01:31PM 38.0669 -85.1192 325° Northwest 373 429 14,800 1,800 Climbing Indianapolis Center
01:32PM 38.1597 -85.1875 330° Northwest 383 441 16,500 1,500 Climbing Indianapolis Center
01:33PM 38.2578 -85.2489 334° Northwest 391 450 18,000 1,500 Climbing Indianapolis Center
01:34PM 38.3619 -85.3017 338° Northwest 409 471 19,600 1,500 Climbing Indianapolis Center
01:35PM 38.4572 -85.3756 329° Northwest 406 467 21,100 1,560 Climbing Indianapolis Center
01:36PM 38.5767 -85.4686 329° Northwest 420 483 22,900 1,560 Climbing Indianapolis Center
01:37PM 38.6694 -85.5425 328° Northwest 424 488 24,300 1,260 Climbing Indianapolis Center
01:38PM 38.7719 -85.6219 329° Northwest 431 496 25,600 1,260 Climbing Indianapolis Center
01:39PM 38.8756 -85.7042 328° Northwest 437 503 27,000 1,200 Climbing Indianapolis Center
01:40PM 38.9808 -85.7881 328° Northwest 443 510 28,100 1,200 Climbing Indianapolis Center
01:41PM 39.1106 -85.8903 329° Northwest 454 522 29,500 900 Climbing Indianapolis Center
01:42PM 39.2214 -85.9781 328° Northwest 464 534 30,000 240 Climbing Indianapolis Center
01:43PM 39.3386 -86.0725 328° Northwest 491 565 30,000  Level Indianapolis Center
01:44PM 39.4544 -86.1658 328° Northwest 491 565 30,000  Level Indianapolis Center
01:45PM 39.5681 -86.2586 328° Northwest 484 557 30,000  Level Indianapolis Center
01:47PM 39.6917 -86.3583 328° Northwest 481 554 30,000  Level Indianapolis Center
01:48PM 39.8011 -86.4481 328° Northwest 478 550 30,000  Level Indianapolis Center
01:49PM 39.9106 -86.5356 328° Northwest 465 535 30,000  Level Indianapolis Center
01:50PM 40.0183 -86.6244 328° Northwest 460 529 30,000  Level Indianapolis Center
01:51PM 40.1267 -86.7122 328° Northwest 458 527 30,000  Level Indianapolis Center
01:52PM 40.2556 -86.8186 328° Northwest 458 527 30,000  Level Indianapolis Center
01:53PM 40.3625 -86.9069 328° Northwest 457 526 30,000  Level Indianapolis Center
01:54PM 40.4686 -86.9961 327° Northwest 454 522 30,000  Level Indianapolis Center
01:55PM 40.5933 -87.0308 348° North 459 528 30,000  Level Indianapolis Center
01:56PM 40.7217 -87.0492 354° North 464 534 30,000  Level Indianapolis Center
01:57PM 40.8483 -87.0683 353° North 460 529 30,000  Level Indianapolis Center
01:58PM 40.9769 -87.0869 354° North 463 533 30,000  Level Indianapolis Center
01:59PM 41.1286 -87.1094 354° North 458 527 30,000  Level Indianapolis Center
02:00PM 41.2561 -87.1267 354° North 460 529 30,000  Level Indianapolis Center
02:01PM 41.4289 -87.1550 353° North 460 529 30,000 -660 Level Chicago Center
02:02PM 41.5561 -87.1736 354° North 463 533 28,500 -2,040 Descending Chicago Center
02:03PM 41.6942 -87.1953 353° North 497 572 25,900 -2,520 Descending Chicago Center
02:04PM 41.8308 -87.2161 354° North 500 575 23,400 -2,400 Descending Chicago Center
02:05PM 41.9797 -87.2403 353° North 458 527 21,000 -2,640 Descending Chicago Center
02:06PM 42.0983 -87.2589 353° North 437 503 18,000 -2,880 Descending Chicago Center
02:07PM 42.2161 -87.2764 354° North 433 498 15,100 -1,020 Descending Chicago Center
02:08PM 42.3183 -87.2900 354° North 407 468 16,000 -180 Climbing Chicago Center
02:10PM 42.4594 -87.3136 353° North 423 487 14,800 -1,740 Descending Chicago Center
02:11PM 42.5747 -87.3308 354° North 420 483 12,500 -2,220 Descending Chicago Center
02:12PM 42.6594 -87.3908 332° Northwest 376 433 10,300 -1,260 Descending Chicago Center
02:13PM 42.7133 -87.4739 311° West 311 358 10,000 -180 Descending Chicago Center
02:14PM 42.7633 -87.5481 313° West 278 320 10,000 -180 Level Chicago Center
02:15PM 42.8131 -87.6208 313° West 266 306 9,700 -720 Descending Chicago Center
02:16PM 42.8569 -87.6850 313° West 245 282 8,600 -1,260 Descending Chicago Center
02:17PM 42.9081 -87.7528 316° Northwest 229 264 7,200 -1,200 Descending Chicago Center
02:18PM 42.9750 -87.7458 North 237 273 6,200 -1,140 Descending Chicago Center
02:19PM 43.0392 -87.7414 North 233 268 4,900 -1,260 Descending Chicago Center
02:20PM 43.0617 -87.8011 297° West 228 262 3,700 -1,020 Descending Chicago Center
02:21PM 43.0414 -87.8722 249° West 212 244 2,800 -1,020 Descending Chicago Center
02:22PM 42.9997 -87.8872 195° South 183 211 1,700 -720 Descending Chicago Center
02:23PM 42.9561 -87.8931 186° South 164 189 1,400 -300 Descending Chicago Center